X  Close Metar Aviation Weather Data     CYYC Calgary International
Temperature
17°C Temperature
6°C Dewpoint
49% Humidity



Wind
26 KM/H
16 MPH
7 M/S
14 KTS



110°
ESE
Current Conditions

Partly Cloudy Partly Cloudy
Pressure 1019.62 (hPa) - 30.11 (inHg)
Visibility 15 (mile) - 24.1 (km)
Airport
Airport-code CYYC

Location: Calgary International
Distance: 4 (km)

Metar:
CYYC 300400Z 11014KT 15SM FEW180 SCT220 17/06 A3011 RMK AC1CI2 SLP202 DENSITY ALT 4500FT

Time: 29-05-2020 22:00 MDT